Time;durP1;ratioP1;P1;durP2;ratioP2;P2;SDS_P1;SDS_P2;PMS_P1;PMS_P2;Temp;Humidity;BMP_temperature;BMP_pressure;BME280_temperature;BME280_humidity;BME280_pressure;Samples;Min_cycle;Max_cycle;Signal;HPM_P1;HPM_P2
2022/08/05 00:01:56;;;;;;;5.10;3.30;;;25.30;61.70;;;;;;5047440;28;20956;-72
2022/08/05 00:04:41;;;;;;;9.63;3.30;;;25.30;61.40;;;;;;5042845;28;20588;-73
2022/08/05 00:07:28;;;;;;;5.57;3.33;;;25.60;57.70;;;;;;5038205;28;20812;-72
2022/08/05 00:10:14;;;;;;;6.80;2.60;;;25.90;55.50;;;;;;5044571;28;20471;-71
2022/08/05 00:13:00;;;;;;;13.00;3.20;;;26.10;53.80;;;;;;5052568;28;20428;-71
2022/08/05 00:15:45;;;;;;;9.00;3.10;;;26.30;52.20;;;;;;5038712;28;20820;-72
2022/08/05 00:18:31;;;;;;;9.70;3.33;;;26.50;51.20;;;;;;5046993;28;20466;-71
2022/08/05 00:21:18;;;;;;;6.87;2.80;;;26.50;50.20;;;;;;5043687;28;20671;-71
2022/08/05 00:24:05;;;;;;;9.03;3.43;;;26.60;50.50;;;;;;5041962;28;20949;-71
2022/08/05 00:26:51;;;;;;;14.87;3.30;;;26.60;51.80;;;;;;5044410;28;20436;-71
2022/08/05 00:29:37;;;;;;;19.43;4.53;;;26.60;53.00;;;;;;5040840;28;20980;-71
2022/08/05 00:32:23;;;;;;;10.60;3.50;;;26.50;55.40;;;;;;5050415;28;20435;-71
2022/08/05 00:35:09;;;;;;;5.90;3.03;;;26.50;56.20;;;;;;5042982;28;20848;-71
2022/08/05 00:37:55;;;;;;;8.97;3.80;;;26.40;57.20;;;;;;5050428;28;20419;-71
2022/08/05 00:40:49;;;;;;;11.90;4.53;;;26.40;58.50;;;;;;5050207;28;20813;-71
2022/08/05 00:43:35;;;;;;;11.87;4.73;;;26.30;59.70;;;;;;5036955;28;20559;-73
2022/08/05 00:46:21;;;;;;;13.17;4.83;;;26.20;61.40;;;;;;5045591;28;20427;-71
2022/08/05 00:49:07;;;;;;;15.83;4.90;;;26.10;62.40;;;;;;5040293;28;20427;-71
2022/08/05 00:51:52;;;;;;;9.60;4.67;;;26.10;63.00;;;;;;5051295;28;20451;-71
2022/08/05 00:54:38;;;;;;;6.60;4.67;;;26.10;63.20;;;;;;5035872;28;21083;-71
2022/08/05 00:57:25;;;;;;;20.37;5.20;;;26.10;62.90;;;;;;5043893;28;20447;-71
2022/08/05 01:00:12;;;;;;;7.93;3.87;;;26.20;63.20;;;;;;5047151;28;20534;-71
2022/08/05 01:02:59;;;;;;;15.67;4.77;;;26.20;62.60;;;;;;5050905;28;20439;-72
2022/08/05 01:05:44;;;;;;;12.97;5.20;;;26.30;62.40;;;;;;5038622;28;20444;-71
2022/08/05 01:08:30;;;;;;;15.70;5.90;;;26.30;62.10;;;;;;5042811;28;20420;-71
2022/08/05 01:11:21;;;;;;;13.27;4.90;;;26.20;62.20;;;;;;5042456;28;20475;-71
2022/08/05 01:14:16;;;;;;;7.83;5.00;;;26.20;61.80;;;;;;5029505;28;20445;-71
2022/08/05 01:17:07;;;;;;;10.43;5.13;;;26.30;62.00;;;;;;5046829;28;20462;-71
2022/08/05 01:20:00;;;;;;;7.33;4.60;;;26.30;61.40;;;;;;5045427;28;20502;-71
2022/08/05 01:23:01;;;;;;;6.67;4.57;;;26.40;61.00;;;;;;5044578;28;20436;-71
2022/08/05 01:26:16;;;;;;;7.60;5.07;;;26.50;59.90;;;;;;5048421;28;20525;-72
2022/08/05 01:29:06;;;;;;;6.43;4.77;;;26.50;59.40;;;;;;5015140;28;20455;-71
2022/08/05 01:31:56;;;;;;;12.33;5.20;;;26.60;57.80;;;;;;5047527;28;20915;-72
2022/08/05 01:34:48;;;;;;;6.70;4.80;;;26.50;57.90;;;;;;5036011;28;20546;-71
2022/08/05 01:37:40;;;;;;;8.63;4.80;;;26.50;58.60;;;;;;5045272;28;20423;-72
2022/08/05 01:40:29;;;;;;;12.00;5.10;;;26.50;58.40;;;;;;5042813;28;20970;-71
2022/08/05 01:43:15;;;;;;;11.30;4.80;;;26.50;59.50;;;;;;5040300;28;20452;-71
2022/08/05 01:46:03;;;;;;;16.27;4.70;;;26.50;59.40;;;;;;5042060;28;20470;-71
2022/08/05 01:48:50;;;;;;;19.40;4.50;;;26.40;59.80;;;;;;5047724;28;20428;-72
2022/08/05 01:51:37;;;;;;;8.50;4.40;;;26.50;59.90;;;;;;5040862;28;20467;-72
2022/08/05 01:54:24;;;;;;;5.90;4.57;;;26.50;60.50;;;;;;5036638;28;20447;-72
2022/08/05 01:57:11;;;;;;;13.53;4.20;;;26.50;59.90;;;;;;5040002;28;20563;-71
2022/08/05 02:00:00;;;;;;;5.93;3.70;;;26.50;59.90;;;;;;5049311;28;20558;-72
2022/08/05 02:02:51;;;;;;;10.10;4.60;;;26.40;59.80;;;;;;5047305;28;20465;-71
2022/08/05 02:05:38;;;;;;;7.80;4.30;;;26.40;59.90;;;;;;5039767;28;20471;-72
2022/08/05 02:08:24;;;;;;;10.80;5.20;;;26.40;60.10;;;;;;5039162;28;20420;-72
2022/08/05 02:11:11;;;;;;;9.17;4.90;;;26.30;60.30;;;;;;5045353;28;20472;-71
2022/08/05 02:14:02;;;;;;;7.30;4.57;;;26.30;61.10;;;;;;5036770;28;20448;-72
2022/08/05 02:16:51;;;;;;;10.97;4.63;;;26.20;60.60;;;;;;5044471;28;20799;-71
2022/08/05 02:19:44;;;;;;;8.30;4.67;;;26.20;60.10;;;;;;5045485;28;20803;-71
2022/08/05 02:22:32;;;;;;;10.13;4.33;;;26.30;59.70;;;;;;5041136;28;20543;-71
2022/08/05 02:25:25;;;;;;;10.50;3.83;;;26.30;59.00;;;;;;5045625;28;20423;-71
2022/08/05 02:28:13;;;;;;;15.43;4.40;;;26.40;59.10;;;;;;5052530;28;20458;-70
2022/08/05 02:31:03;;;;;;;8.60;4.10;;;26.40;59.10;;;;;;5040341;28;20479;-70
2022/08/05 02:33:51;;;;;;;10.53;4.63;;;26.30;59.10;;;;;;5041164;28;20451;-70
2022/08/05 02:36:43;;;;;;;14.67;4.10;;;26.30;59.70;;;;;;5049603;28;20427;-71
2022/08/05 02:39:34;;;;;;;5.40;3.73;;;26.30;60.10;;;;;;5048309;28;20428;-70
2022/08/05 02:42:21;;;;;;;10.03;4.20;;;26.30;60.80;;;;;;5039791;28;20460;-71
2022/08/05 02:45:10;;;;;;;9.17;4.83;;;26.30;61.00;;;;;;5042940;28;20424;-71
2022/08/05 02:47:57;;;;;;;6.70;4.00;;;26.30;61.00;;;;;;5047649;28;20415;-71
2022/08/05 02:50:46;;;;;;;8.23;3.90;;;26.20;61.10;;;;;;5050234;28;20487;-71
2022/08/05 02:53:33;;;;;;;6.00;3.90;;;26.10;61.40;;;;;;5036292;28;20457;-71
2022/08/05 02:56:20;;;;;;;4.70;3.97;;;26.10;62.00;;;;;;5038203;28;20443;-71
2022/08/05 02:59:07;;;;;;;6.87;4.33;;;26.00;63.60;;;;;;5044514;28;20510;-71
2022/08/05 03:01:59;;;;;;;6.30;3.97;;;26.00;64.40;;;;;;5042403;28;20460;-71
2022/08/05 03:04:46;;;;;;;11.90;4.43;;;25.90;65.40;;;;;;5046373;28;20419;-71
2022/08/05 03:07:33;;;;;;;8.40;4.43;;;25.90;64.10;;;;;;5051934;28;20431;-71
2022/08/05 03:10:21;;;;;;;9.50;5.00;;;25.80;64.90;;;;;;5048701;28;20483;-70
2022/08/05 03:13:13;;;;;;;6.90;4.30;;;25.80;65.40;;;;;;5026404;28;20591;-70
2022/08/05 03:15:58;;;;;;;7.50;4.40;;;25.80;65.70;;;;;;5044005;28;20423;-71
2022/08/05 03:18:44;;;;;;;11.80;4.10;;;25.80;65.40;;;;;;5045262;28;20440;-71
2022/08/05 03:21:29;;;;;;;6.83;3.67;;;25.80;65.80;;;;;;5043511;28;20517;-72
2022/08/05 03:24:16;;;;;;;6.47;3.70;;;25.70;66.20;;;;;;5037558;28;20431;-71
2022/08/05 03:27:03;;;;;;;7.53;4.03;;;25.60;67.90;;;;;;5035644;28;20431;-71
2022/08/05 03:29:49;;;;;;;14.00;4.50;;;25.50;68.40;;;;;;5043188;28;20431;-71
2022/08/05 03:32:36;;;;;;;9.87;4.50;;;25.30;70.70;;;;;;5028766;28;20444;-70
2022/08/05 03:35:22;;;;;;;5.30;3.47;;;25.20;71.00;;;;;;5040944;28;20443;-71
2022/08/05 03:38:08;;;;;;;7.23;4.60;;;25.20;70.90;;;;;;5041357;28;20566;-70
2022/08/05 03:40:54;;;;;;;8.37;4.10;;;25.20;73.10;;;;;;5047921;28;20452;-71
2022/08/05 03:43:41;;;;;;;9.80;3.40;;;25.20;74.00;;;;;;5032175;28;21267;-71
2022/08/05 03:46:27;;;;;;;8.70;3.80;;;25.20;74.20;;;;;;5045662;28;20455;-71
2022/08/05 03:49:12;;;;;;;6.47;4.30;;;25.10;76.10;;;;;;5032787;28;20506;-71
2022/08/05 03:52:02;;;;;;;5.20;4.07;;;25.00;78.00;;;;;;5035661;28;20468;-71
2022/08/05 03:54:53;;;;;;;9.03;4.50;;;24.80;82.10;;;;;;5044079;28;20984;-71
2022/08/05 03:57:41;;;;;;;11.90;5.30;;;24.80;80.90;;;;;;5048019;28;20478;-71
2022/08/05 04:00:31;;;;;;;14.67;4.20;;;24.60;81.90;;;;;;5050601;28;20820;-71
2022/08/05 04:03:17;;;;;;;6.23;3.60;;;24.60;84.80;;;;;;5034843;28;20444;-70
2022/08/05 04:06:05;;;;;;;4.73;2.70;;;24.50;79.40;;;;;;5039740;28;20856;-71
2022/08/05 04:08:51;;;;;;;4.13;3.10;;;24.70;72.40;;;;;;5048333;28;20432;-71
2022/08/05 04:11:37;;;;;;;5.87;3.10;;;24.80;71.30;;;;;;5036233;28;20473;-71
2022/08/05 04:14:24;;;;;;;6.37;3.70;;;25.00;71.20;;;;;;5033072;28;20451;-71
2022/08/05 04:17:11;;;;;;;11.80;3.80;;;25.00;71.60;;;;;;5037730;28;20432;-71
2022/08/05 04:19:57;;;;;;;9.33;4.43;;;25.00;71.00;;;;;;5041288;28;20435;-71
2022/08/05 04:22:43;;;;;;;8.13;3.53;;;25.10;72.20;;;;;;5028867;28;20444;-73
2022/08/05 04:25:28;;;;;;;6.33;3.90;;;25.10;72.60;;;;;;5047860;28;20444;-71
2022/08/05 04:28:14;;;;;;;4.87;3.03;;;25.10;71.00;;;;;;5038148;28;20457;-71
2022/08/05 04:31:00;;;;;;;7.40;3.47;;;25.10;70.10;;;;;;5037372;28;20546;-71
2022/08/05 04:33:48;;;;;;;5.90;3.00;;;25.00;71.20;;;;;;5045345;28;20416;-71
2022/08/05 04:36:33;;;;;;;6.97;3.33;;;24.80;71.00;;;;;;5043430;28;20431;-71
2022/08/05 04:39:19;;;;;;;5.20;2.53;;;24.90;72.50;;;;;;5041570;28;20467;-71
2022/08/05 04:42:05;;;;;;;4.17;2.90;;;24.80;72.70;;;;;;5023751;28;20471;-71
2022/08/05 04:44:51;;;;;;;7.10;3.47;;;24.80;72.10;;;;;;5039248;28;20431;-71
2022/08/05 04:47:37;;;;;;;4.00;3.27;;;24.80;71.10;;;;;;5046288;28;20522;-71
2022/08/05 04:50:24;;;;;;;6.20;3.07;;;24.80;72.90;;;;;;5046680;28;20514;-71
2022/08/05 04:53:11;;;;;;;5.43;2.90;;;24.70;73.50;;;;;;5034623;28;20431;-71
2022/08/05 04:55:57;;;;;;;8.17;3.40;;;24.70;74.20;;;;;;5045606;28;20786;-71
2022/08/05 04:58:43;;;;;;;5.80;3.10;;;24.50;74.20;;;;;;5048579;28;20431;-71
2022/08/05 05:01:28;;;;;;;7.90;3.57;;;24.40;75.30;;;;;;5029120;28;20464;-73
2022/08/05 05:04:14;;;;;;;4.60;3.27;;;24.40;75.40;;;;;;5048811;28;20422;-71
2022/08/05 05:07:01;;;;;;;4.20;2.97;;;24.40;76.00;;;;;;5035478;28;20483;-71
2022/08/05 05:09:47;;;;;;;4.73;3.47;;;24.50;76.30;;;;;;5052135;28;20424;-71
2022/08/05 05:12:33;;;;;;;5.67;3.20;;;24.40;77.00;;;;;;5032630;28;20479;-71
2022/08/05 05:15:19;;;;;;;5.33;3.63;;;24.30;78.10;;;;;;5047876;28;20909;-71
2022/08/05 05:18:05;;;;;;;5.23;3.53;;;24.20;78.50;;;;;;5042617;28;20432;-71
2022/08/05 05:20:51;;;;;;;6.30;3.23;;;24.10;79.70;;;;;;5038501;28;21135;-71
2022/08/05 05:23:38;;;;;;;12.47;3.40;;;24.20;79.80;;;;;;5045241;28;20451;-71
2022/08/05 05:26:23;;;;;;;7.00;4.00;;;24.30;80.20;;;;;;5045045;28;20440;-71
2022/08/05 05:29:09;;;;;;;6.23;3.73;;;24.40;79.30;;;;;;5046712;28;20420;-71
2022/08/05 05:31:55;;;;;;;8.73;3.40;;;24.40;79.80;;;;;;5040479;28;20469;-71
2022/08/05 05:34:41;;;;;;;7.80;3.67;;;24.30;80.50;;;;;;5048160;28;20569;-71
2022/08/05 05:37:26;;;;;;;4.80;3.40;;;24.30;81.10;;;;;;5052620;28;20440;-71
2022/08/05 05:40:16;;;;;;;9.10;3.93;;;24.20;82.30;;;;;;5039026;28;20603;-71
2022/08/05 05:43:02;;;;;;;6.60;3.87;;;24.10;83.10;;;;;;5045872;28;20421;-71
2022/08/05 05:45:47;;;;;;;10.10;3.87;;;24.30;83.90;;;;;;5051219;28;20431;-71
2022/08/05 05:48:33;;;;;;;4.80;2.93;;;24.40;83.10;;;;;;5046916;28;20829;-71
2022/08/05 05:51:21;;;;;;;8.37;4.33;;;24.40;82.80;;;;;;5027764;28;20475;-71
2022/08/05 05:54:07;;;;;;;6.13;3.70;;;24.50;81.70;;;;;;5044699;28;20432;-71
2022/08/05 05:56:53;;;;;;;7.53;3.57;;;24.60;81.60;;;;;;5047507;28;20419;-72
2022/08/05 05:59:39;;;;;;;5.70;3.57;;;24.70;81.70;;;;;;5039209;28;20911;-71
2022/08/05 06:02:25;;;;;;;7.00;3.70;;;24.80;82.00;;;;;;5037421;28;20775;-71
2022/08/05 06:05:12;;;;;;;6.07;3.50;;;24.80;80.90;;;;;;5046011;28;20451;-71
2022/08/05 06:07:57;;;;;;;10.63;3.40;;;24.80;81.90;;;;;;5047368;28;20431;-71
2022/08/05 06:10:43;;;;;;;7.93;3.90;;;24.90;81.10;;;;;;5038056;28;20635;-71
2022/08/05 06:13:30;;;;;;;5.10;3.30;;;24.90;79.50;;;;;;5037063;28;20423;-71
2022/08/05 06:16:16;;;;;;;5.83;4.30;;;25.10;78.90;;;;;;5046642;28;20463;-71
2022/08/05 06:19:01;;;;;;;6.80;3.70;;;25.10;79.30;;;;;;5041190;28;20424;-71
2022/08/05 06:21:47;;;;;;;6.83;3.20;;;25.20;78.90;;;;;;5027326;28;20448;-71
2022/08/05 06:24:34;;;;;;;8.50;3.13;;;25.20;78.80;;;;;;5044110;28;20953;-71
2022/08/05 06:27:20;;;;;;;7.83;3.70;;;25.20;78.80;;;;;;5035577;28;21015;-71
2022/08/05 06:30:09;;;;;;;6.23;3.60;;;25.20;78.90;;;;;;5033153;28;20449;-71
2022/08/05 06:32:55;;;;;;;5.07;3.07;;;25.10;79.80;;;;;;5044891;28;20463;-71
2022/08/05 06:35:40;;;;;;;7.63;4.70;;;25.10;79.40;;;;;;5046935;28;20520;-71
2022/08/05 06:38:26;;;;;;;7.07;3.57;;;25.20;78.80;;;;;;5041211;28;20452;-71
2022/08/05 06:41:12;;;;;;;5.20;3.27;;;25.30;78.40;;;;;;5040269;28;20459;-71
2022/08/05 06:43:57;;;;;;;6.37;3.90;;;25.40;78.00;;;;;;5037969;28;20487;-71
2022/08/05 06:46:45;;;;;;;4.90;3.33;;;25.60;78.30;;;;;;5050666;28;20428;-71
2022/08/05 06:49:30;;;;;;;5.43;3.77;;;25.60;76.20;;;;;;5038859;28;20452;-71
2022/08/05 06:52:16;;;;;;;7.60;3.70;;;25.70;75.30;;;;;;5040726;28;20607;-71
2022/08/05 06:55:01;;;;;;;8.30;3.70;;;25.90;74.30;;;;;;5034465;28;20796;-71
2022/08/05 06:57:47;;;;;;;7.77;4.10;;;25.90;72.00;;;;;;5051283;28;20518;-71
2022/08/05 07:00:32;;;;;;;6.00;3.47;;;26.00;72.00;;;;;;5036962;28;20517;-71
2022/08/05 07:03:19;;;;;;;5.20;3.20;;;26.10;71.50;;;;;;5040283;28;20424;-71
2022/08/05 07:06:05;;;;;;;6.50;3.50;;;26.30;70.90;;;;;;5044348;28;20419;-71
2022/08/05 07:08:51;;;;;;;10.83;3.50;;;26.20;65.80;;;;;;5039094;28;20582;-71
2022/08/05 07:11:37;;;;;;;4.73;3.30;;;26.10;66.00;;;;;;5035353;28;20615;-71
2022/08/05 07:17:26;;;;;;;3.90;3.13;;;26.10;68.10;;;;;;5037359;28;20420;-71
2022/08/05 07:20:13;;;;;;;3.67;2.87;;;26.30;65.50;;;;;;5025628;28;20471;-71
2022/08/05 07:22:59;;;;;;;3.63;2.90;;;26.40;63.60;;;;;;5051484;28;20463;-71
2022/08/05 07:25:45;;;;;;;6.20;2.80;;;26.30;64.40;;;;;;5037406;28;20429;-71
2022/08/05 07:28:30;;;;;;;4.83;2.53;;;26.30;62.90;;;;;;5040612;28;20917;-71
2022/08/05 07:31:16;;;;;;;4.47;2.70;;;26.40;59.50;;;;;;5045402;28;20479;-71
2022/08/05 07:34:02;;;;;;;9.20;3.87;;;26.50;59.00;;;;;;5049248;28;20939;-71
2022/08/05 07:36:49;;;;;;;5.07;3.10;;;26.50;59.20;;;;;;5048974;28;20431;-71
2022/08/05 07:39:34;;;;;;;6.67;3.47;;;26.50;59.90;;;;;;5035887;28;20452;-71
2022/08/05 07:42:20;;;;;;;4.13;3.07;;;26.50;59.90;;;;;;5035204;28;20527;-71
2022/08/05 07:45:06;;;;;;;7.60;3.17;;;26.70;60.70;;;;;;5045058;28;20789;-71
2022/08/05 07:47:52;;;;;;;4.60;2.80;;;26.70;60.00;;;;;;5044560;28;20923;-71
2022/08/05 07:50:38;;;;;;;5.30;3.17;;;26.70;60.00;;;;;;5045504;28;20474;-71
2022/08/05 07:53:25;;;;;;;6.27;3.20;;;26.70;60.00;;;;;;5046233;28;21051;-71
2022/08/05 07:56:11;;;;;;;5.83;3.23;;;26.70;59.30;;;;;;5037668;28;20444;-71
2022/08/05 07:58:56;;;;;;;6.30;2.80;;;26.50;59.90;;;;;;5039487;28;20451;-71
2022/08/05 08:01:42;;;;;;;5.20;3.70;;;26.40;59.80;;;;;;5047255;28;20594;-71
2022/08/05 08:04:28;;;;;;;6.57;3.40;;;26.50;59.00;;;;;;5043828;28;20469;-71
2022/08/05 08:07:14;;;;;;;5.93;3.13;;;26.50;56.50;;;;;;5038234;28;20436;-71
2022/08/05 08:10:01;;;;;;;3.90;2.70;;;26.50;54.80;;;;;;5030967;28;20451;-70
2022/08/05 08:12:46;;;;;;;5.27;3.07;;;26.70;55.20;;;;;;5046056;28;20527;-71
2022/08/05 08:15:32;;;;;;;5.13;2.43;;;26.90;51.40;;;;;;5039535;28;20834;-71
2022/08/05 08:18:17;;;;;;;6.13;2.67;;;27.00;48.10;;;;;;5028547;28;20863;-71
2022/08/05 08:21:03;;;;;;;4.13;2.90;;;26.90;46.50;;;;;;5037704;28;20490;-71
2022/08/05 08:23:48;;;;;;;5.27;2.87;;;26.80;46.80;;;;;;5047481;28;20574;-71
2022/08/05 08:26:35;;;;;;;6.20;3.20;;;26.80;47.10;;;;;;5043269;28;20431;-71
2022/08/05 08:29:21;;;;;;;4.10;2.63;;;26.70;47.10;;;;;;5030917;28;20494;-71
2022/08/05 08:32:07;;;;;;;4.67;2.60;;;26.70;47.50;;;;;;5037716;28;20523;-70
2022/08/05 08:34:52;;;;;;;7.47;2.53;;;26.70;47.30;;;;;;5051923;28;20562;-71
2022/08/05 08:37:38;;;;;;;3.63;2.63;;;26.60;47.50;;;;;;5040815;28;20449;-70
2022/08/05 08:40:24;;;;;;;4.97;2.53;;;26.60;47.00;;;;;;5038914;28;20452;-71
2022/08/05 08:43:13;;;;;;;5.63;2.80;;;26.70;49.00;;;;;;5041681;28;20484;-71
2022/08/05 08:46:01;;;;;;;5.80;2.70;;;26.80;47.80;;;;;;5045611;28;20855;-71
2022/08/05 08:48:48;;;;;;;12.00;2.43;;;26.90;48.30;;;;;;5037302;28;20467;-71
2022/08/05 08:51:35;;;;;;;8.10;2.57;;;26.90;49.00;;;;;;5047199;28;20454;-71
2022/08/05 08:54:21;;;;;;;3.87;2.43;;;26.80;47.20;;;;;;5044305;28;20435;-70
2022/08/05 08:57:06;;;;;;;3.50;2.40;;;26.80;48.40;;;;;;5045297;28;20439;-71
2022/08/05 08:59:54;;;;;;;8.20;2.70;;;26.80;47.30;;;;;;5042363;28;20803;-71
2022/08/05 09:02:40;;;;;;;12.53;3.10;;;26.80;51.50;;;;;;5049161;28;20416;-71
2022/08/05 09:05:26;;;;;;;12.53;3.60;;;26.80;56.10;;;;;;5051373;28;20973;-71
2022/08/05 09:08:12;;;;;;;6.27;3.23;;;26.80;70.10;;;;;;5027114;28;20447;-71
2022/08/05 09:10:58;;;;;;;4.10;2.60;;;26.70;76.00;;;;;;5047629;28;20533;-71
2022/08/05 09:13:44;;;;;;;6.07;3.20;;;26.50;73.50;;;;;;5044088;28;20475;-71
2022/08/05 09:16:31;;;;;;;9.90;3.10;;;26.30;80.90;;;;;;5041601;28;20439;-71
2022/08/05 09:19:17;;;;;;;6.77;2.70;;;26.20;81.30;;;;;;5044546;28;20496;-71
2022/08/05 09:22:03;;;;;;;3.67;2.50;;;26.20;82.80;;;;;;5052707;28;20825;-71
2022/08/05 09:24:58;;;;;;;3.97;2.70;;;26.10;82.70;;;;;;5039950;28;20425;-71
2022/08/05 09:27:44;;;;;;;4.80;3.10;;;25.90;80.00;;;;;;5042456;28;21005;-71
2022/08/05 09:30:29;;;;;;;5.73;2.40;;;25.90;78.40;;;;;;5041812;28;20909;-71
2022/08/05 09:33:16;;;;;;;5.33;2.80;;;25.70;74.80;;;;;;5041878;28;20828;-71
2022/08/05 09:36:04;;;;;;;5.47;2.90;;;25.70;74.90;;;;;;5044947;28;20424;-71
2022/08/05 09:38:56;;;;;;;4.47;2.93;;;25.80;74.60;;;;;;5031677;28;20428;-71
2022/08/05 09:41:56;;;;;;;9.50;2.60;;;25.90;69.50;;;;;;5027606;28;20448;-70
2022/08/05 09:44:43;;;;;;;5.20;2.77;;;26.10;72.30;;;;;;5038024;28;20435;-71
2022/08/05 09:47:29;;;;;;;6.53;2.70;;;26.30;66.90;;;;;;5028472;28;20535;-71
2022/08/05 09:50:20;;;;;;;6.53;2.70;;;26.40;62.30;;;;;;5050403;28;20575;-71
2022/08/05 09:53:05;;;;;;;3.23;1.70;;;26.50;62.70;;;;;;5043535;28;20478;-71
2022/08/05 09:55:53;;;;;;;3.00;2.30;;;26.60;60.80;;;;;;5050131;28;20446;-71
2022/08/05 09:58:39;;;;;;;4.20;2.67;;;26.80;54.20;;;;;;5041664;28;21123;-71
2022/08/05 10:01:25;;;;;;;4.63;1.73;;;26.80;53.30;;;;;;5052442;28;20451;-71
2022/08/05 10:04:12;;;;;;;3.17;2.00;;;26.90;48.80;;;;;;5045000;28;20471;-71
2022/08/05 10:07:00;;;;;;;3.10;1.93;;;27.00;50.20;;;;;;5041801;28;20444;-71
2022/08/05 10:09:55;;;;;;;3.17;1.87;;;27.20;48.90;;;;;;5043561;28;20428;-71
2022/08/05 10:12:42;;;;;;;5.10;2.47;;;27.40;48.20;;;;;;5047096;28;20475;-71
2022/08/05 10:15:30;;;;;;;5.03;2.17;;;27.40;48.50;;;;;;5039088;28;20424;-71
2022/08/05 10:18:18;;;;;;;3.53;2.10;;;27.60;44.00;;;;;;5036115;28;20435;-71
2022/08/05 10:21:06;;;;;;;4.00;2.33;;;27.70;44.60;;;;;;5045595;28;20456;-73
2022/08/05 10:23:53;;;;;;;3.80;2.70;;;27.60;43.40;;;;;;5047501;28;20428;-73
2022/08/05 10:26:39;;;;;;;4.33;2.73;;;27.50;43.90;;;;;;5033302;28;20472;-73
2022/08/05 10:29:25;;;;;;;5.27;2.57;;;27.60;46.10;;;;;;5047939;28;20498;-73
2022/08/05 10:32:11;;;;;;;4.07;2.50;;;27.80;45.10;;;;;;5042812;28;20529;-73
2022/08/05 10:34:58;;;;;;;3.87;2.43;;;27.90;44.20;;;;;;5051521;28;20428;-73
2022/08/05 10:37:44;;;;;;;3.10;2.23;;;27.60;41.80;;;;;;5036294;28;20443;-73
2022/08/05 10:40:34;;;;;;;7.37;2.77;;;27.40;42.10;;;;;;5044036;28;20530;-73
2022/08/05 10:43:33;;;;;;;5.10;3.07;;;27.20;43.70;;;;;;5033823;28;20428;-72
2022/08/05 10:46:21;;;;;;;6.13;2.90;;;27.10;43.60;;;;;;5028176;28;20993;-72
2022/08/05 10:49:07;;;;;;;4.30;2.53;;;27.00;45.40;;;;;;5036624;28;20444;-73
2022/08/05 10:51:57;;;;;;;6.87;2.90;;;27.10;46.20;;;;;;5049626;28;21210;-73
2022/08/05 10:54:48;;;;;;;3.50;2.50;;;27.10;45.60;;;;;;5039857;28;20389;-73
2022/08/05 10:57:36;;;;;;;5.90;2.50;;;27.00;46.10;;;;;;5031083;28;20607;-72
2022/08/05 11:00:29;;;;;;;3.67;2.63;;;27.10;46.90;;;;;;5041068;28;20475;-72
2022/08/05 11:03:15;;;;;;;4.63;2.90;;;27.20;46.70;;;;;;5039496;28;20563;-73
2022/08/05 11:06:12;;;;;;;4.03;2.80;;;27.00;48.30;;;;;;5023946;28;20452;-73
2022/08/05 11:09:20;;;;;;;4.40;2.87;;;27.00;47.40;;;;;;5037536;28;20469;-73
2022/08/05 11:12:44;;;;;;;5.03;2.97;;;27.40;48.80;;;;;;5039902;28;20824;-73
2022/08/05 11:15:33;;;;;;;3.80;2.83;;;27.70;47.50;;;;;;5032930;28;20596;-73
2022/08/05 11:18:28;;;;;;;5.90;2.70;;;28.00;47.30;;;;;;5040826;28;20450;-73
2022/08/05 11:21:31;;;;;;;4.10;2.80;;;28.20;46.30;;;;;;5038688;28;20456;-73
2022/08/05 11:24:17;;;;;;;8.00;3.10;;;28.40;45.00;;;;;;5040888;28;20774;-71
2022/08/05 11:27:31;;;;;;;4.00;3.20;;;28.30;43.40;;;;;;5029407;28;20513;-72
2022/08/05 11:30:18;;;;;;;6.30;2.83;;;28.30;44.90;;;;;;5042106;28;20865;-71
2022/08/05 11:33:25;;;;;;;3.60;3.10;;;28.40;45.10;;;;;;5039963;28;20455;-73
2022/08/05 11:36:13;;;;;;;4.23;2.90;;;28.60;43.70;;;;;;5027266;28;20452;-72
2022/08/05 11:38:58;;;;;;;7.43;2.70;;;28.80;42.90;;;;;;5047635;28;20420;-73
2022/08/05 11:41:51;;;;;;;4.90;3.17;;;28.90;42.80;;;;;;5047253;28;20459;-73
2022/08/05 11:44:39;;;;;;;3.67;2.67;;;28.90;44.30;;;;;;5043132;28;20431;-73
2022/08/05 11:47:26;;;;;;;5.30;2.80;;;29.00;43.30;;;;;;5039901;28;20910;-72
2022/08/05 11:50:12;;;;;;;5.93;3.70;;;29.10;43.40;;;;;;5045155;28;20444;-73
2022/08/05 11:53:04;;;;;;;6.00;3.13;;;28.80;42.90;;;;;;5050865;28;20475;-72
2022/08/05 11:55:54;;;;;;;8.07;3.00;;;28.70;44.60;;;;;;5033450;28;20448;-71
2022/08/05 11:58:41;;;;;;;3.63;2.87;;;28.50;44.90;;;;;;5039523;28;20428;-71
2022/08/05 12:01:27;;;;;;;4.60;2.77;;;28.60;44.50;;;;;;5042238;28;20447;-73
2022/08/05 12:04:14;;;;;;;6.77;3.20;;;28.50;43.30;;;;;;5038590;28;20592;-69
2022/08/05 12:07:00;;;;;;;3.60;2.63;;;28.40;43.90;;;;;;5036111;28;20570;-74
2022/08/05 12:09:48;;;;;;;5.83;3.40;;;28.30;45.00;;;;;;5047645;28;20940;-73
2022/08/05 12:12:34;;;;;;;3.57;2.73;;;28.30;44.70;;;;;;5040611;28;20427;-73
2022/08/05 12:15:20;;;;;;;6.23;2.80;;;28.40;45.10;;;;;;5026379;28;20520;-73
2022/08/05 12:18:06;;;;;;;5.23;2.90;;;28.50;44.90;;;;;;5040988;28;20415;-73
2022/08/05 12:20:53;;;;;;;3.50;2.90;;;28.50;44.00;;;;;;5049500;28;20594;-73
2022/08/05 12:23:38;;;;;;;7.07;2.90;;;28.40;44.90;;;;;;5042507;28;20423;-73
2022/08/05 12:26:24;;;;;;;4.60;3.13;;;28.30;46.30;;;;;;5040303;28;20431;-73
2022/08/05 12:29:12;;;;;;;3.97;3.00;;;28.50;44.90;;;;;;5050326;28;20951;-73
2022/08/05 12:32:00;;;;;;;4.90;3.40;;;28.60;44.30;;;;;;5047877;28;20587;-73
2022/08/05 12:34:45;;;;;;;4.23;3.37;;;28.40;42.90;;;;;;5036085;28;20877;-72
2022/08/05 12:37:33;;;;;;;5.10;3.40;;;28.20;44.50;;;;;;5044512;28;20977;-73
2022/08/05 12:40:23;;;;;;;3.10;2.50;;;28.30;44.80;;;;;;5033907;28;20563;-73
2022/08/05 12:43:09;;;;;;;8.10;3.40;;;28.40;45.60;;;;;;5030493;28;20420;-73
2022/08/05 12:45:56;;;;;;;4.57;2.90;;;28.40;44.90;;;;;;5033734;28;20521;-73
2022/08/05 12:48:42;;;;;;;6.20;3.00;;;28.60;45.40;;;;;;5044604;28;20912;-72
2022/08/05 12:51:30;;;;;;;3.90;3.10;;;28.60;44.50;;;;;;5051039;28;20455;-73
2022/08/05 12:54:22;;;;;;;4.53;3.23;;;28.50;44.30;;;;;;5033724;28;20476;-73
2022/08/05 12:57:09;;;;;;;4.43;2.70;;;28.20;46.00;;;;;;5041601;28;20445;-73
2022/08/05 12:59:56;;;;;;;3.57;2.87;;;28.20;46.20;;;;;;5047606;28;20432;-73
2022/08/05 13:02:41;;;;;;;5.40;3.10;;;28.30;46.60;;;;;;5049241;28;20435;-73
2022/08/05 13:05:27;;;;;;;3.30;2.60;;;28.30;45.90;;;;;;5028450;28;20479;-73
2022/08/05 13:08:16;;;;;;;4.90;3.40;;;28.30;46.40;;;;;;5041874;28;20574;-72
2022/08/05 13:11:04;;;;;;;3.77;3.13;;;28.10;46.60;;;;;;5035635;28;20443;-73
2022/08/05 13:13:50;;;;;;;5.50;2.70;;;28.00;47.30;;;;;;5036138;28;20476;-73
2022/08/05 13:16:46;;;;;;;3.67;3.00;;;28.10;47.40;;;;;;5035625;28;20432;-73
2022/08/05 13:19:31;;;;;;;4.47;3.10;;;28.50;47.70;;;;;;5044390;28;20961;-73
2022/08/05 13:22:17;;;;;;;4.10;2.73;;;28.80;44.40;;;;;;5037461;28;21173;-73
2022/08/05 13:25:05;;;;;;;4.00;3.00;;;28.90;45.40;;;;;;5032722;28;20438;-72
2022/08/05 13:27:54;;;;;;;10.83;3.80;;;29.20;42.00;;;;;;5048214;28;20509;-73
2022/08/05 13:30:40;;;;;;;4.50;3.33;;;29.30;43.00;;;;;;5047270;28;20821;-73
2022/08/05 13:33:25;;;;;;;6.70;3.57;;;29.50;41.90;;;;;;5039614;28;20484;-72
2022/08/05 13:36:12;;;;;;;4.03;3.10;;;29.70;41.60;;;;;;5037447;28;20575;-73
2022/08/05 13:38:57;;;;;;;5.00;2.83;;;29.90;41.50;;;;;;5051413;28;20432;-71
2022/08/05 13:41:43;;;;;;;3.80;2.77;;;30.10;39.60;;;;;;5049583;28;21125;-73
2022/08/05 13:44:30;;;;;;;4.00;2.80;;;30.20;38.90;;;;;;5034237;28;20449;-73
2022/08/05 13:47:15;;;;;;;5.03;2.97;;;30.10;37.90;;;;;;5037269;28;20423;-73
2022/08/05 13:50:02;;;;;;;4.03;3.37;;;30.20;37.00;;;;;;5048095;28;20427;-73
2022/08/05 13:52:48;;;;;;;6.10;2.67;;;30.20;37.50;;;;;;5047273;28;20534;-72
2022/08/05 13:55:33;;;;;;;5.33;3.10;;;30.30;37.40;;;;;;5038100;28;20428;-73
2022/08/05 13:58:19;;;;;;;4.93;2.80;;;29.40;36.40;;;;;;5044938;28;20506;-73
2022/08/05 14:01:06;;;;;;;3.70;3.00;;;29.50;38.90;;;;;;5031582;28;20813;-71
2022/08/05 14:06:54;;;;;;;4.40;3.27;;;29.50;37.10;;;;;;5045317;28;20836;-73
2022/08/05 14:09:40;;;;;;;6.00;3.67;;;29.60;38.80;;;;;;5043503;28;20555;-73
2022/08/05 14:12:27;;;;;;;5.40;3.23;;;29.50;36.70;;;;;;5046472;28;20785;-70
2022/08/05 14:15:13;;;;;;;3.07;2.53;;;29.50;38.10;;;;;;5039616;28;20781;-73
2022/08/05 14:18:00;;;;;;;8.27;3.20;;;29.90;38.90;;;;;;5043027;28;20427;-73
2022/08/05 14:20:46;;;;;;;13.90;3.90;;;30.00;36.20;;;;;;5044777;28;20459;-73
2022/08/05 14:23:32;;;;;;;7.20;3.20;;;30.20;35.80;;;;;;5038357;28;20442;-72
2022/08/05 14:26:18;;;;;;;6.10;3.60;;;30.30;35.30;;;;;;5041640;28;20482;-73
2022/08/05 14:29:04;;;;;;;5.00;2.90;;;30.00;36.50;;;;;;5045840;28;20789;-71
2022/08/05 14:31:49;;;;;;;3.83;3.10;;;29.90;35.80;;;;;;5049416;28;20448;-73
2022/08/05 14:34:36;;;;;;;3.93;2.90;;;30.10;36.90;;;;;;5029925;28;20876;-73
2022/08/05 14:37:22;;;;;;;5.53;3.50;;;30.10;36.50;;;;;;5042365;28;20932;-73